createdAt,value
2023-03-07T00:01:30.581Z,113.70
2023-03-07T00:03:58.910Z,113.47
2023-03-07T00:06:26.409Z,125.28
2023-03-07T00:08:57.550Z,118.43
2023-03-07T00:11:25.041Z,117.22
2023-03-07T00:13:52.344Z,134.45
2023-03-07T00:16:22.990Z,139.48
2023-03-07T00:18:50.484Z,127.40
2023-03-07T00:21:21.640Z,175.40
2023-03-07T00:23:49.415Z,149.57
2023-03-07T00:26:22.000Z,169.77
2023-03-07T00:28:51.840Z,175.82
2023-03-07T00:31:20.567Z,154.88
2023-03-07T00:33:47.949Z,172.05
2023-03-07T00:36:22.201Z,176.95
2023-03-07T00:38:50.217Z,159.98
2023-03-07T00:41:27.006Z,138.45
2023-03-07T00:43:55.751Z,137.05
2023-03-07T00:46:25.297Z,121.70
2023-03-07T00:48:53.298Z,139.73
2023-03-07T00:51:22.845Z,129.38
2023-03-07T00:53:50.714Z,134.32
2023-03-07T00:56:27.019Z,123.60
2023-03-07T00:58:54.063Z,127.28
2023-03-07T01:01:24.696Z,114.45
2023-03-07T01:03:56.235Z,129.60
2023-03-07T01:06:28.007Z,142.57
2023-03-07T01:09:00.932Z,123.68
2023-03-07T01:11:30.265Z,131.73
2023-03-07T01:14:00.154Z,155.82
2023-03-07T01:16:31.174Z,140.27
2023-03-07T01:19:01.902Z,155.98
2023-03-07T01:21:33.451Z,141.02
2023-03-07T01:24:00.828Z,135.23
2023-03-07T01:26:31.462Z,163.32
2023-03-07T01:29:02.015Z,158.15
2023-03-07T01:31:32.748Z,153.73
2023-03-07T01:34:02.496Z,152.02
2023-03-07T01:36:33.364Z,152.77
2023-03-07T01:39:06.766Z,126.70
2023-03-07T01:41:38.098Z,115.93
2023-03-07T01:44:19.029Z,109.55
2023-03-07T01:46:56.281Z,108.93
2023-03-07T01:49:40.702Z,97.90
2023-03-07T01:52:18.472Z,89.90
2023-03-07T01:54:53.220Z,136.43
2023-03-07T01:57:23.751Z,116.10
2023-03-07T01:59:55.512Z,123.30
2023-03-07T02:02:24.663Z,130.75
2023-03-07T02:05:11.747Z,130.60
2023-03-07T02:07:48.752Z,205.80
2023-03-07T02:10:19.111Z,125.28
2023-03-07T02:12:46.112Z,100.10
2023-03-07T02:15:14.667Z,91.22
2023-03-07T02:17:43.114Z,82.18
2023-03-07T02:20:37.757Z,72.30
2023-03-07T02:23:06.038Z,74.72
2023-03-07T02:25:58.297Z,74.50
2023-03-07T02:28:25.830Z,58.05
2023-03-07T02:30:58.711Z,48.92
2023-03-07T02:33:25.872Z,54.17
2023-03-07T02:35:58.413Z,47.95
2023-03-07T02:38:26.605Z,52.35
2023-03-07T02:40:55.595Z,36.70
2023-03-07T02:43:23.566Z,39.60
2023-03-07T02:45:50.881Z,41.20
2023-03-07T02:48:18.030Z,45.25
2023-03-07T02:50:45.211Z,42.08
2023-03-07T02:53:12.279Z,55.58
2023-03-07T02:55:39.333Z,70.38
2023-03-07T02:58:06.483Z,74.15
2023-03-07T03:00:34.200Z,66.32
2023-03-07T03:03:01.299Z,65.18
2023-03-07T03:05:28.362Z,72.43
2023-03-07T03:07:55.409Z,78.07
2023-03-07T03:10:22.578Z,89.60
2023-03-07T03:12:49.665Z,60.78
2023-03-07T03:15:16.801Z,74.80
2023-03-07T03:17:44.791Z,64.93
2023-03-07T03:20:13.077Z,56.78
2023-03-07T03:22:41.737Z,68.05
2023-03-07T03:25:11.556Z,66.63
2023-03-07T03:27:39.627Z,54.85
2023-03-07T03:30:10.310Z,54.58
2023-03-07T03:32:39.042Z,44.28
2023-03-07T03:35:07.308Z,37.53
2023-03-07T03:37:34.496Z,32.97
2023-03-07T03:40:01.531Z,43.40
2023-03-07T03:42:28.632Z,37.65
2023-03-07T03:44:55.555Z,39.88
2023-03-07T03:47:22.528Z,61.15
2023-03-07T03:49:49.478Z,34.95
2023-03-07T03:52:16.496Z,36.50
2023-03-07T03:54:43.517Z,29.38
2023-03-07T03:57:12.804Z,44.95
2023-03-07T03:59:40.051Z,35.00
2023-03-07T04:02:07.133Z,47.83
2023-03-07T04:04:34.220Z,49.55
2023-03-07T04:07:01.303Z,46.33
2023-03-07T04:09:28.312Z,38.58
2023-03-07T04:11:55.359Z,39.30
2023-03-07T04:14:22.748Z,34.83
2023-03-07T04:16:50.273Z,38.63
2023-03-07T04:19:18.176Z,48.47
2023-03-07T04:21:45.342Z,25.77
2023-03-07T04:24:12.466Z,29.42
2023-03-07T04:26:39.474Z,54.30
2023-03-07T04:29:06.424Z,28.77
2023-03-07T04:31:33.445Z,27.90
2023-03-07T04:34:00.595Z,34.15
2023-03-07T04:36:27.769Z,32.88
2023-03-07T04:38:54.748Z,25.63
2023-03-07T04:41:26.811Z,40.15
2023-03-07T04:43:54.161Z,44.92
2023-03-07T04:46:21.400Z,39.78
2023-03-07T04:48:48.618Z,39.08
2023-03-07T04:51:15.772Z,36.90
2023-03-07T04:53:43.171Z,39.45
2023-03-07T04:56:11.395Z,28.48
2023-03-07T04:58:38.844Z,54.50
2023-03-07T05:01:06.502Z,25.25
2023-03-07T05:03:35.263Z,30.92
2023-03-07T05:06:06.480Z,34.10
2023-03-07T05:08:34.090Z,23.77
2023-03-07T05:11:01.737Z,40.10
2023-03-07T05:13:28.875Z,25.52
2023-03-07T05:15:58.454Z,32.13
2023-03-07T05:18:27.157Z,46.30
2023-03-07T05:20:54.419Z,26.00
2023-03-07T05:23:21.834Z,29.90
2023-03-07T05:25:48.987Z,44.95
2023-03-07T05:28:17.142Z,38.58
2023-03-07T05:30:46.413Z,65.47
2023-03-07T05:33:14.221Z,72.22
2023-03-07T05:35:41.364Z,44.92
2023-03-07T05:38:08.621Z,49.70
2023-03-07T05:40:36.150Z,27.25
2023-03-07T05:43:04.043Z,35.30
2023-03-07T05:45:31.278Z,40.10
2023-03-07T05:47:58.315Z,69.63
2023-03-07T05:50:25.767Z,39.28
2023-03-07T05:53:03.772Z,17.52
2023-03-07T05:55:30.783Z,38.30
2023-03-07T05:57:57.786Z,37.10
2023-03-07T06:00:24.960Z,31.60
2023-03-07T06:02:52.238Z,30.52
2023-03-07T06:05:19.442Z,41.45
2023-03-07T06:07:46.578Z,74.95
2023-03-07T06:10:13.925Z,30.40
2023-03-07T06:12:41.167Z,59.00
2023-03-07T06:15:09.071Z,45.13
2023-03-07T06:17:36.234Z,41.60
2023-03-07T06:20:03.585Z,46.58
2023-03-07T06:22:32.022Z,43.13
2023-03-07T06:24:59.136Z,32.97
2023-03-07T06:27:26.223Z,22.52
2023-03-07T06:29:54.415Z,22.73
2023-03-07T06:32:21.523Z,26.23
2023-03-07T06:34:48.625Z,21.15
2023-03-07T06:37:15.938Z,28.73
2023-03-07T06:39:43.200Z,31.00
2023-03-07T06:42:10.320Z,23.83
2023-03-07T06:44:37.533Z,37.95
2023-03-07T06:47:05.014Z,22.60
2023-03-07T06:49:32.072Z,38.72
2023-03-07T06:51:59.573Z,38.08
2023-03-07T06:54:26.663Z,64.50
2023-03-07T06:56:55.204Z,38.72
2023-03-07T06:59:22.298Z,26.08
2023-03-07T07:01:49.454Z,37.08
2023-03-07T07:04:16.681Z,40.65
2023-03-07T07:06:43.694Z,40.75
2023-03-07T07:09:14.282Z,60.65
2023-03-07T07:11:41.434Z,41.90
2023-03-07T07:14:08.635Z,41.90
2023-03-07T07:16:36.587Z,48.35
2023-03-07T07:19:04.206Z,39.30
2023-03-07T07:21:31.285Z,41.22
2023-03-07T07:23:58.701Z,45.13
2023-03-07T07:26:26.545Z,47.42
2023-03-07T07:28:53.803Z,52.42
2023-03-07T07:31:20.910Z,43.33
2023-03-07T07:33:48.484Z,54.13
2023-03-07T07:36:15.498Z,37.60
2023-03-07T07:38:42.474Z,45.58
2023-03-07T07:41:09.511Z,45.00
2023-03-07T07:43:36.603Z,44.05
2023-03-07T07:46:05.314Z,44.42
2023-03-07T07:48:32.711Z,56.42
2023-03-07T07:51:04.278Z,40.22
2023-03-07T07:53:32.246Z,47.58
2023-03-07T07:55:59.321Z,52.90
2023-03-07T07:58:26.652Z,62.08
2023-03-07T08:00:53.656Z,42.70
2023-03-07T08:03:20.664Z,46.30
2023-03-07T08:05:48.711Z,50.13
2023-03-07T08:08:16.995Z,48.00
2023-03-07T08:10:46.676Z,42.92
2023-03-07T08:13:17.513Z,38.85
2023-03-07T08:15:44.566Z,33.22
2023-03-07T08:18:11.775Z,56.60
2023-03-07T08:20:39.698Z,58.08
2023-03-07T08:23:06.922Z,44.60
2023-03-07T08:25:33.968Z,47.65
2023-03-07T08:28:03.616Z,56.63
2023-03-07T08:30:33.438Z,79.47
2023-03-07T08:33:00.619Z,65.28
2023-03-07T08:35:29.906Z,69.07
2023-03-07T08:37:59.764Z,80.90
2023-03-07T08:40:31.056Z,98.78
2023-03-07T08:42:59.705Z,78.60
2023-03-07T08:45:27.062Z,87.40
2023-03-07T08:47:56.005Z,99.47
2023-03-07T08:50:27.040Z,67.55
2023-03-07T08:52:54.106Z,79.55
2023-03-07T08:55:21.140Z,66.85
2023-03-07T08:57:48.171Z,66.80
2023-03-07T09:00:16.175Z,57.15
2023-03-07T09:02:43.312Z,73.32
2023-03-07T09:05:11.036Z,55.70
2023-03-07T09:07:38.305Z,51.20
2023-03-07T09:10:06.156Z,111.00
2023-03-07T09:12:34.758Z,112.53
2023-03-07T09:15:01.899Z,112.68
2023-03-07T09:17:28.912Z,139.82
2023-03-07T09:19:56.698Z,117.35
2023-03-07T09:22:23.686Z,106.72
2023-03-07T09:24:50.773Z,112.03
2023-03-07T09:27:17.775Z,119.80
2023-03-07T09:29:45.039Z,133.02
2023-03-07T09:32:12.183Z,133.95
2023-03-07T09:34:39.393Z,142.80
2023-03-07T09:37:06.540Z,134.40
2023-03-07T09:39:34.046Z,143.55
2023-03-07T09:42:36.983Z,153.13
2023-03-07T09:45:12.491Z,150.43
2023-03-07T09:48:32.301Z,170.57
2023-03-07T09:51:11.900Z,158.48
2023-03-07T09:53:45.567Z,175.40
2023-03-07T09:56:40.840Z,177.23
2023-03-07T09:59:23.164Z,182.85
2023-03-07T10:01:58.974Z,197.02
2023-03-07T10:04:40.285Z,191.23
2023-03-07T10:07:10.413Z,189.73
2023-03-07T10:09:37.616Z,198.95
2023-03-07T10:12:42.502Z,189.48
2023-03-07T10:15:33.516Z,114.30
2023-03-07T10:18:25.132Z,63.38
2023-03-07T10:21:12.234Z,120.10
2023-03-07T10:24:02.408Z,134.82
2023-03-07T10:27:12.818Z,49.40
2023-03-07T10:29:51.329Z,55.00
2023-03-07T10:32:32.544Z,51.00
2023-03-07T10:35:24.447Z,28.98
2023-03-07T10:38:33.672Z,26.92
2023-03-07T10:41:16.471Z,37.38
2023-03-07T10:43:46.191Z,29.98
2023-03-07T10:46:25.426Z,63.78
2023-03-07T10:49:18.617Z,98.13
2023-03-07T10:52:07.391Z,43.13
2023-03-07T10:54:37.642Z,89.32
2023-03-07T10:57:09.164Z,114.38
2023-03-07T10:59:43.683Z,117.15
2023-03-07T11:02:36.436Z,161.55
2023-03-07T11:05:24.213Z,173.50
2023-03-07T11:07:51.311Z,192.40
2023-03-07T11:10:40.257Z,196.30
2023-03-07T11:13:22.134Z,173.85
2023-03-07T11:15:49.711Z,157.95
2023-03-07T11:18:41.903Z,123.57
2023-03-07T11:21:36.307Z,142.07
2023-03-07T11:24:09.967Z,168.73
2023-03-07T11:26:41.312Z,171.43
2023-03-07T11:29:14.765Z,179.38
2023-03-07T11:31:52.624Z,185.88
2023-03-07T11:34:46.288Z,191.38
2023-03-07T11:37:24.260Z,209.40
2023-03-07T11:40:27.118Z,205.27
2023-03-07T11:43:19.014Z,210.05
2023-03-07T11:45:57.996Z,215.02
2023-03-07T11:48:53.517Z,201.27
2023-03-07T11:51:41.990Z,197.48
2023-03-07T11:54:40.733Z,219.15
2023-03-07T11:57:50.669Z,212.35
2023-03-07T12:00:59.533Z,205.05
2023-03-07T12:04:22.737Z,205.68
2023-03-07T12:07:39.153Z,190.25
2023-03-07T12:10:37.151Z,207.95
2023-03-07T12:13:38.276Z,220.02
2023-03-07T12:16:24.412Z,218.43
2023-03-07T12:19:20.491Z,221.60
2023-03-07T12:22:21.893Z,224.80
2023-03-07T12:25:19.670Z,209.48
2023-03-07T12:28:12.290Z,204.80
2023-03-07T12:31:11.113Z,226.38
2023-03-07T12:34:07.582Z,208.75
2023-03-07T12:36:52.367Z,215.20
2023-03-07T12:39:30.750Z,206.10
2023-03-07T12:42:12.640Z,215.02
2023-03-07T12:44:55.792Z,224.85
2023-03-07T12:47:59.919Z,240.65
2023-03-07T12:50:52.964Z,205.43
2023-03-07T12:53:38.209Z,232.93
2023-03-07T12:56:22.650Z,205.00
2023-03-07T12:59:02.582Z,215.80
2023-03-07T13:01:46.643Z,210.52
2023-03-07T13:04:35.857Z,219.48
2023-03-07T13:07:46.704Z,212.45
2023-03-07T13:10:20.906Z,222.13
2023-03-07T13:12:49.968Z,238.38
2023-03-07T13:15:21.058Z,247.90
2023-03-07T13:17:48.078Z,249.95
2023-03-07T13:20:40.861Z,244.30
2023-03-07T13:23:25.589Z,246.18
2023-03-07T13:25:58.997Z,236.40
2023-03-07T13:28:41.956Z,220.15
2023-03-07T13:31:20.927Z,194.68
2023-03-07T13:33:50.973Z,206.23
2023-03-07T13:36:47.482Z,194.27
2023-03-07T13:39:36.764Z,207.25
2023-03-07T13:42:04.250Z,215.82
2023-03-07T13:44:41.178Z,215.00
2023-03-07T13:47:45.453Z,195.85
2023-03-07T13:50:33.945Z,196.65
2023-03-07T13:53:14.264Z,171.75
2023-03-07T13:56:08.838Z,187.57
2023-03-07T13:59:09.495Z,221.13
2023-03-07T14:01:57.103Z,172.48
2023-03-07T14:04:44.865Z,130.50
2023-03-07T14:07:21.378Z,114.10
2023-03-07T14:09:58.377Z,122.00
2023-03-07T14:12:43.503Z,127.93
2023-03-07T14:15:33.888Z,88.40
2023-03-07T14:18:32.889Z,76.13
2023-03-07T14:21:41.054Z,41.35
2023-03-07T14:24:45.280Z,29.83
2023-03-07T14:27:16.844Z,25.50
2023-03-07T14:29:57.133Z,20.90
2023-03-07T14:32:29.693Z,25.58
2023-03-07T14:34:58.074Z,19.65
2023-03-07T14:37:30.868Z,10.93
2023-03-07T14:40:19.902Z,21.92
2023-03-07T14:43:17.217Z,24.58
2023-03-07T14:45:54.496Z,16.90
2023-03-07T14:48:54.885Z,17.63
2023-03-07T14:51:26.388Z,14.70
2023-03-07T14:53:53.723Z,19.13
2023-03-07T14:56:35.177Z,14.15
2023-03-07T14:59:03.888Z,15.38
2023-03-07T15:01:37.141Z,16.23
2023-03-07T15:04:20.111Z,17.77
2023-03-07T15:06:47.461Z,9.02
2023-03-07T15:09:14.509Z,2.33
2023-03-07T15:12:26.664Z,7.10
2023-03-07T15:15:01.942Z,6.45
2023-03-07T15:17:43.876Z,2.88
2023-03-07T15:20:24.884Z,9.57
2023-03-07T15:23:05.039Z,6.30
2023-03-07T15:25:33.720Z,9.05
2023-03-07T15:28:05.246Z,27.27
2023-03-07T15:30:35.812Z,9.93
2023-03-07T15:33:16.689Z,13.90
2023-03-07T15:36:05.411Z,10.25
2023-03-07T15:38:33.782Z,13.68
2023-03-07T15:41:00.906Z,14.80
2023-03-07T15:43:34.943Z,9.05
2023-03-07T15:46:08.025Z,7.38
2023-03-07T15:48:50.517Z,6.47
2023-03-07T15:51:22.460Z,10.82
2023-03-07T15:54:13.050Z,10.70
2023-03-07T15:56:43.153Z,7.18
2023-03-07T15:59:31.332Z,6.22
2023-03-07T16:02:33.408Z,10.45
2023-03-07T16:05:03.734Z,15.05
2023-03-07T16:07:30.833Z,8.27
2023-03-07T16:09:59.987Z,11.95
2023-03-07T16:12:26.950Z,14.30
2023-03-07T16:14:55.501Z,10.60
2023-03-07T16:17:40.438Z,8.75
2023-03-07T16:20:25.643Z,13.20
2023-03-07T16:22:53.513Z,10.52
2023-03-07T16:25:22.653Z,14.40
2023-03-07T16:27:56.788Z,22.35
2023-03-07T16:30:27.463Z,14.90
2023-03-07T16:32:54.919Z,18.08
2023-03-07T16:35:25.950Z,15.38
2023-03-07T16:37:54.368Z,18.17
2023-03-07T16:40:23.957Z,12.27
2023-03-07T16:42:51.220Z,18.85
2023-03-07T16:45:30.463Z,14.43
2023-03-07T16:48:02.513Z,14.75
2023-03-07T16:50:33.794Z,13.88
2023-03-07T16:53:00.904Z,18.02
2023-03-07T16:55:28.208Z,16.30
2023-03-07T16:58:00.520Z,24.73
2023-03-07T17:00:28.776Z,11.55
2023-03-07T17:03:00.270Z,19.15
2023-03-07T17:05:29.115Z,11.50
2023-03-07T17:07:58.336Z,24.10
2023-03-07T17:10:28.124Z,37.42
2023-03-07T17:12:57.720Z,19.20
2023-03-07T17:15:30.601Z,15.45
2023-03-07T17:18:00.020Z,16.52
2023-03-07T17:20:28.075Z,16.02
2023-03-07T17:22:55.224Z,15.48
2023-03-07T17:25:23.216Z,11.90
2023-03-07T17:27:57.951Z,21.23
2023-03-07T17:30:28.791Z,19.30
2023-03-07T17:32:57.153Z,21.35
2023-03-07T17:35:25.118Z,13.70
2023-03-07T17:37:55.936Z,21.30
2023-03-07T17:40:23.498Z,17.35
2023-03-07T17:42:51.863Z,16.98
2023-03-07T17:45:19.132Z,21.52
2023-03-07T17:47:54.843Z,17.67
2023-03-07T17:50:26.057Z,20.50
2023-03-07T17:52:55.348Z,20.17
2023-03-07T17:55:26.592Z,15.07
2023-03-07T17:57:53.787Z,28.25
2023-03-07T18:00:21.666Z,20.77
2023-03-07T18:02:49.131Z,18.23
2023-03-07T18:05:16.998Z,16.70
2023-03-07T18:07:44.591Z,18.15
2023-03-07T18:10:12.789Z,24.52
2023-03-07T18:12:40.191Z,28.15
2023-03-07T18:15:13.153Z,26.83
2023-03-07T18:17:47.823Z,21.80
2023-03-07T18:20:18.378Z,23.15
2023-03-07T18:22:46.635Z,24.63
2023-03-07T18:25:16.122Z,24.83
2023-03-07T18:27:45.308Z,19.88
2023-03-07T18:30:14.281Z,30.48
2023-03-07T18:32:41.766Z,20.38
2023-03-07T18:35:09.589Z,30.58
2023-03-07T18:37:36.830Z,22.38
2023-03-07T18:40:04.807Z,31.25
2023-03-07T18:42:31.912Z,26.83
2023-03-07T18:45:00.100Z,26.25
2023-03-07T18:47:27.150Z,41.33
2023-03-07T18:49:54.376Z,27.33
2023-03-07T18:52:21.591Z,18.27
2023-03-07T18:54:49.342Z,19.52
2023-03-07T18:57:16.573Z,21.25
2023-03-07T18:59:43.725Z,21.80
2023-03-07T19:02:11.243Z,26.52
2023-03-07T19:04:38.432Z,21.00
2023-03-07T19:07:06.078Z,20.50
2023-03-07T19:09:33.139Z,22.15
2023-03-07T19:12:00.308Z,18.08
2023-03-07T19:14:27.402Z,19.40
2023-03-07T19:16:55.203Z,18.13
2023-03-07T19:19:22.266Z,11.98
2023-03-07T19:21:49.405Z,19.30
2023-03-07T19:24:16.551Z,26.70
2023-03-07T19:26:44.135Z,51.08
2023-03-07T19:29:13.314Z,20.80
2023-03-07T19:31:44.260Z,132.60
2023-03-07T19:34:11.691Z,21.90
2023-03-07T19:36:41.637Z,17.75
2023-03-07T19:39:10.636Z,31.52
2023-03-07T19:41:39.693Z,27.75
2023-03-07T19:44:12.180Z,25.13
2023-03-07T19:46:46.241Z,21.52
2023-03-07T19:49:20.232Z,27.20
2023-03-07T19:51:50.178Z,24.98
2023-03-07T19:54:17.488Z,22.90
2023-03-07T19:56:48.483Z,21.30
2023-03-07T19:59:20.725Z,29.23
2023-03-07T20:01:56.257Z,23.13
2023-03-07T20:04:26.987Z,21.83
2023-03-07T20:06:54.325Z,21.30
2023-03-07T20:09:23.166Z,28.02
2023-03-07T20:14:30.875Z,26.73
2023-03-07T20:16:59.569Z,16.80
2023-03-07T20:19:30.301Z,39.78
2023-03-07T20:21:57.501Z,23.67
2023-03-07T20:24:28.611Z,28.98
2023-03-07T20:26:59.411Z,24.88
2023-03-07T20:29:30.888Z,21.40
2023-03-07T20:32:03.922Z,19.90
2023-03-07T20:34:35.208Z,27.10
2023-03-07T20:37:06.717Z,23.88
2023-03-07T20:39:45.075Z,26.55
2023-03-07T20:42:14.913Z,27.65
2023-03-07T20:44:41.919Z,44.17
2023-03-07T20:47:13.067Z,29.02
2023-03-07T20:49:43.062Z,34.65
2023-03-07T20:52:16.312Z,38.55
2023-03-07T20:54:44.339Z,22.42
2023-03-07T20:57:17.845Z,34.00
2023-03-07T20:59:52.148Z,31.75
2023-03-07T21:02:19.756Z,31.95
2023-03-07T21:04:50.708Z,20.40
2023-03-07T21:07:30.984Z,22.60
2023-03-07T21:09:58.206Z,18.77
2023-03-07T21:12:25.279Z,34.92
2023-03-07T21:14:55.807Z,29.88
2023-03-07T21:17:28.155Z,27.10
2023-03-07T21:19:57.769Z,14.82
2023-03-07T21:22:24.913Z,20.90
2023-03-07T21:24:54.179Z,16.58
2023-03-07T21:27:21.258Z,25.10
2023-03-07T21:29:48.759Z,20.52
2023-03-07T21:32:15.909Z,28.35
2023-03-07T21:34:43.049Z,25.05
2023-03-07T21:37:10.209Z,31.08
2023-03-07T21:39:39.465Z,22.20
2023-03-07T21:42:06.521Z,21.55
2023-03-07T21:44:36.030Z,23.70
2023-03-07T21:47:03.057Z,16.10
2023-03-07T21:49:32.849Z,19.52
2023-03-07T21:51:59.860Z,19.30
2023-03-07T21:54:26.995Z,16.58
2023-03-07T21:56:56.845Z,25.45
2023-03-07T21:59:23.975Z,14.77
2023-03-07T22:01:51.059Z,20.52
2023-03-07T22:04:18.295Z,18.35
2023-03-07T22:06:45.348Z,15.52
2023-03-07T22:09:12.483Z,14.82
2023-03-07T22:11:39.629Z,13.48
2023-03-07T22:14:06.733Z,8.57
2023-03-07T22:16:33.911Z,16.55
2023-03-07T22:19:01.108Z,7.15
2023-03-07T22:21:28.258Z,9.68
2023-03-07T22:24:01.389Z,6.00
2023-03-07T22:26:30.902Z,4.93
2023-03-07T22:28:58.996Z,7.15
2023-03-07T22:31:26.712Z,5.80
2023-03-07T22:33:54.149Z,8.38
2023-03-07T22:36:21.835Z,13.90
2023-03-07T22:38:55.567Z,7.13
2023-03-07T22:41:23.914Z,15.57
2023-03-07T22:43:52.738Z,12.68
2023-03-07T22:46:22.290Z,17.92
2023-03-07T22:48:54.183Z,7.25
2023-03-07T22:51:22.423Z,15.27
2023-03-07T22:53:50.013Z,6.93
2023-03-07T22:56:23.967Z,20.73
2023-03-07T22:58:51.409Z,17.20
2023-03-07T23:01:26.317Z,21.67
2023-03-07T23:03:56.114Z,17.02
2023-03-07T23:06:27.409Z,28.35
2023-03-07T23:08:54.812Z,0.40
2023-03-07T23:11:24.319Z,1.60
2023-03-07T23:13:52.160Z,0.30
2023-03-07T23:16:22.953Z,0.32
2023-03-07T23:18:50.969Z,0.30
2023-03-07T23:21:21.489Z,0.30
2023-03-07T23:23:50.191Z,0.20
2023-03-07T23:26:30.642Z,0.30
2023-03-07T23:28:58.114Z,0.50
2023-03-07T23:31:31.734Z,11.23
2023-03-07T23:34:03.615Z,15.15
2023-03-07T23:36:31.867Z,13.65
2023-03-07T23:38:59.976Z,13.65
2023-03-07T23:41:28.021Z,13.55
2023-03-07T23:43:57.834Z,19.80
2023-03-07T23:46:26.151Z,17.95
2023-03-07T23:48:53.665Z,14.40
2023-03-07T23:51:21.039Z,19.05
2023-03-07T23:53:48.402Z,0.50
2023-03-07T23:56:15.752Z,0.40
2023-03-07T23:58:47.592Z,0.55
